sensor_id;sensor_type;location;lat;lon;timestamp;temperature;humidity
38118;DHT22;23928;47.562;7.508;2023-07-13T00:02:07;19.50;99.90
38118;DHT22;23928;47.562;7.508;2023-07-13T00:04:33;19.70;99.90
38118;DHT22;23928;47.562;7.508;2023-07-13T00:06:59;19.80;99.90
38118;DHT22;23928;47.562;7.508;2023-07-13T00:09:25;20.00;99.90
38118;DHT22;23928;47.562;7.508;2023-07-13T00:11:55;20.10;99.90
38118;DHT22;23928;47.562;7.508;2023-07-13T00:14:22;20.10;99.90
38118;DHT22;23928;47.562;7.508;2023-07-13T00:16:47;20.10;99.90
38118;DHT22;23928;47.562;7.508;2023-07-13T00:19:14;20.00;99.90
38118;DHT22;23928;47.562;7.508;2023-07-13T00:21:40;19.50;99.90
38118;DHT22;23928;47.562;7.508;2023-07-13T00:24:08;19.60;99.90
38118;DHT22;23928;47.562;7.508;2023-07-13T00:26:35;19.60;99.90
38118;DHT22;23928;47.562;7.508;2023-07-13T00:29:00;19.70;99.90
38118;DHT22;23928;47.562;7.508;2023-07-13T00:31:26;19.70;99.90
38118;DHT22;23928;47.562;7.508;2023-07-13T00:33:52;19.90;99.90
38118;DHT22;23928;47.562;7.508;2023-07-13T00:36:17;20.10;99.90
38118;DHT22;23928;47.562;7.508;2023-07-13T00:38:43;20.00;99.90
38118;DHT22;23928;47.562;7.508;2023-07-13T00:41:09;20.00;99.90
38118;DHT22;23928;47.562;7.508;2023-07-13T00:43:35;20.00;99.90
38118;DHT22;23928;47.562;7.508;2023-07-13T00:48:34;19.70;99.90
38118;DHT22;23928;47.562;7.508;2023-07-13T00:51:02;19.60;99.90
38118;DHT22;23928;47.562;7.508;2023-07-13T00:53:29;19.70;99.90
38118;DHT22;23928;47.562;7.508;2023-07-13T00:55:56;19.60;99.90
38118;DHT22;23928;47.562;7.508;2023-07-13T00:58:24;19.50;99.90
38118;DHT22;23928;47.562;7.508;2023-07-13T01:00:51;19.60;99.90
38118;DHT22;23928;47.562;7.508;2023-07-13T01:03:17;19.90;99.90
38118;DHT22;23928;47.562;7.508;2023-07-13T01:05:43;19.60;99.90
38118;DHT22;23928;47.562;7.508;2023-07-13T01:08:09;19.70;99.90
38118;DHT22;23928;47.562;7.508;2023-07-13T01:10:35;19.50;99.90
38118;DHT22;23928;47.562;7.508;2023-07-13T01:13:06;19.60;99.90
38118;DHT22;23928;47.562;7.508;2023-07-13T01:15:46;19.60;99.90
38118;DHT22;23928;47.562;7.508;2023-07-13T01:18:16;19.60;99.90
38118;DHT22;23928;47.562;7.508;2023-07-13T01:20:57;19.70;99.90
38118;DHT22;23928;47.562;7.508;2023-07-13T01:23:24;19.90;99.90
38118;DHT22;23928;47.562;7.508;2023-07-13T01:25:51;19.70;99.90
38118;DHT22;23928;47.562;7.508;2023-07-13T01:28:17;19.40;99.90
38118;DHT22;23928;47.562;7.508;2023-07-13T01:30:43;19.30;99.90
38118;DHT22;23928;47.562;7.508;2023-07-13T01:33:15;19.40;99.90
38118;DHT22;23928;47.562;7.508;2023-07-13T01:35:42;19.40;99.90
38118;DHT22;23928;47.562;7.508;2023-07-13T01:38:08;19.50;99.90
38118;DHT22;23928;47.562;7.508;2023-07-13T01:40:35;19.50;99.90
38118;DHT22;23928;47.562;7.508;2023-07-13T01:43:01;19.60;99.90
38118;DHT22;23928;47.562;7.508;2023-07-13T01:45:27;19.50;99.90
38118;DHT22;23928;47.562;7.508;2023-07-13T01:47:52;19.40;99.90
38118;DHT22;23928;47.562;7.508;2023-07-13T01:50:18;19.50;99.90
38118;DHT22;23928;47.562;7.508;2023-07-13T01:52:43;19.70;99.90
38118;DHT22;23928;47.562;7.508;2023-07-13T01:55:09;19.50;99.90
38118;DHT22;23928;47.562;7.508;2023-07-13T01:57:35;19.50;99.90
38118;DHT22;23928;47.562;7.508;2023-07-13T02:00:03;19.50;99.90
38118;DHT22;23928;47.562;7.508;2023-07-13T02:02:30;19.50;99.90
38118;DHT22;23928;47.562;7.508;2023-07-13T02:04:56;19.50;99.90
38118;DHT22;23928;47.562;7.508;2023-07-13T02:07:21;19.30;99.90
38118;DHT22;23928;47.562;7.508;2023-07-13T02:09:47;19.40;99.90
38118;DHT22;23928;47.562;7.508;2023-07-13T02:12:13;19.30;99.90
38118;DHT22;23928;47.562;7.508;2023-07-13T02:14:38;19.20;99.90
38118;DHT22;23928;47.562;7.508;2023-07-13T02:17:04;19.20;99.90
38118;DHT22;23928;47.562;7.508;2023-07-13T02:19:30;19.30;99.90
38118;DHT22;23928;47.562;7.508;2023-07-13T02:21:56;19.20;99.90
38118;DHT22;23928;47.562;7.508;2023-07-13T02:24:21;19.10;99.90
38118;DHT22;23928;47.562;7.508;2023-07-13T02:26:47;19.10;99.90
38118;DHT22;23928;47.562;7.508;2023-07-13T02:29:13;19.10;99.90
38118;DHT22;23928;47.562;7.508;2023-07-13T02:31:39;19.10;99.90
38118;DHT22;23928;47.562;7.508;2023-07-13T02:34:04;19.20;99.90
38118;DHT22;23928;47.562;7.508;2023-07-13T02:36:31;19.20;99.90
38118;DHT22;23928;47.562;7.508;2023-07-13T02:39:00;19.20;99.90
38118;DHT22;23928;47.562;7.508;2023-07-13T02:41:26;19.20;99.90
38118;DHT22;23928;47.562;7.508;2023-07-13T02:43:52;19.20;99.90
38118;DHT22;23928;47.562;7.508;2023-07-13T02:46:17;19.30;99.90
38118;DHT22;23928;47.562;7.508;2023-07-13T02:48:45;19.30;99.90
38118;DHT22;23928;47.562;7.508;2023-07-13T02:51:10;19.30;99.90
38118;DHT22;23928;47.562;7.508;2023-07-13T02:53:36;19.10;99.90
38118;DHT22;23928;47.562;7.508;2023-07-13T02:56:03;19.20;99.90
38118;DHT22;23928;47.562;7.508;2023-07-13T02:58:28;19.20;99.90
38118;DHT22;23928;47.562;7.508;2023-07-13T03:00:55;19.30;99.90
38118;DHT22;23928;47.562;7.508;2023-07-13T03:03:21;19.20;99.90
38118;DHT22;23928;47.562;7.508;2023-07-13T03:05:47;19.20;99.90
38118;DHT22;23928;47.562;7.508;2023-07-13T03:08:15;19.30;99.90
38118;DHT22;23928;47.562;7.508;2023-07-13T03:10:41;19.30;99.90
38118;DHT22;23928;47.562;7.508;2023-07-13T03:13:07;19.30;99.90
38118;DHT22;23928;47.562;7.508;2023-07-13T03:15:32;19.30;99.90
38118;DHT22;23928;47.562;7.508;2023-07-13T03:17:58;19.20;99.90
38118;DHT22;23928;47.562;7.508;2023-07-13T03:20:24;19.20;99.90
38118;DHT22;23928;47.562;7.508;2023-07-13T03:22:50;19.20;99.90
38118;DHT22;23928;47.562;7.508;2023-07-13T03:25:15;19.10;99.90
38118;DHT22;23928;47.562;7.508;2023-07-13T03:27:41;19.10;99.90
38118;DHT22;23928;47.562;7.508;2023-07-13T03:30:07;19.10;99.90
38118;DHT22;23928;47.562;7.508;2023-07-13T03:32:33;19.00;99.90
38118;DHT22;23928;47.562;7.508;2023-07-13T03:34:59;19.10;99.90
38118;DHT22;23928;47.562;7.508;2023-07-13T03:37:25;19.00;99.90
38118;DHT22;23928;47.562;7.508;2023-07-13T03:39:50;19.00;99.90
38118;DHT22;23928;47.562;7.508;2023-07-13T03:42:16;19.10;99.90
38118;DHT22;23928;47.562;7.508;2023-07-13T03:44:42;19.10;99.90
38118;DHT22;23928;47.562;7.508;2023-07-13T03:47:11;19.30;99.90
38118;DHT22;23928;47.562;7.508;2023-07-13T03:49:37;19.30;99.90
38118;DHT22;23928;47.562;7.508;2023-07-13T03:52:03;19.10;99.90
38118;DHT22;23928;47.562;7.508;2023-07-13T03:54:28;19.00;99.90
38118;DHT22;23928;47.562;7.508;2023-07-13T03:56:54;18.90;99.90
38118;DHT22;23928;47.562;7.508;2023-07-13T03:59:20;18.90;99.90
38118;DHT22;23928;47.562;7.508;2023-07-13T04:01:46;18.90;99.90
38118;DHT22;23928;47.562;7.508;2023-07-13T04:04:11;19.00;99.90
38118;DHT22;23928;47.562;7.508;2023-07-13T04:06:37;19.00;99.90
38118;DHT22;23928;47.562;7.508;2023-07-13T04:09:04;19.00;99.90
38118;DHT22;23928;47.562;7.508;2023-07-13T04:11:34;19.00;99.90
38118;DHT22;23928;47.562;7.508;2023-07-13T04:14:01;18.90;99.90
38118;DHT22;23928;47.562;7.508;2023-07-13T04:16:27;18.90;99.90
38118;DHT22;23928;47.562;7.508;2023-07-13T04:18:54;18.70;99.90
38118;DHT22;23928;47.562;7.508;2023-07-13T04:21:24;18.60;99.90
38118;DHT22;23928;47.562;7.508;2023-07-13T04:23:50;18.70;99.90
38118;DHT22;23928;47.562;7.508;2023-07-13T04:26:15;18.70;99.90
38118;DHT22;23928;47.562;7.508;2023-07-13T04:28:41;18.80;99.90
38118;DHT22;23928;47.562;7.508;2023-07-13T04:31:07;18.80;99.90
38118;DHT22;23928;47.562;7.508;2023-07-13T04:33:33;18.80;99.90
38118;DHT22;23928;47.562;7.508;2023-07-13T04:35:59;18.80;99.90
38118;DHT22;23928;47.562;7.508;2023-07-13T04:38:28;19.00;99.90
38118;DHT22;23928;47.562;7.508;2023-07-13T04:41:00;19.00;99.90
38118;DHT22;23928;47.562;7.508;2023-07-13T04:43:27;18.90;99.90
38118;DHT22;23928;47.562;7.508;2023-07-13T04:45:53;19.00;99.90
38118;DHT22;23928;47.562;7.508;2023-07-13T04:48:19;19.00;99.90
38118;DHT22;23928;47.562;7.508;2023-07-13T04:50:46;19.10;99.90
38118;DHT22;23928;47.562;7.508;2023-07-13T04:53:12;19.00;99.90
38118;DHT22;23928;47.562;7.508;2023-07-13T04:55:38;19.00;99.90
38118;DHT22;23928;47.562;7.508;2023-07-13T04:58:04;19.10;99.90
38118;DHT22;23928;47.562;7.508;2023-07-13T05:00:31;19.00;99.90
38118;DHT22;23928;47.562;7.508;2023-07-13T05:02:57;19.00;99.90
38118;DHT22;23928;47.562;7.508;2023-07-13T05:05:24;18.90;99.90
38118;DHT22;23928;47.562;7.508;2023-07-13T05:07:50;19.00;99.90
38118;DHT22;23928;47.562;7.508;2023-07-13T05:10:16;19.00;99.90
38118;DHT22;23928;47.562;7.508;2023-07-13T05:12:41;19.10;99.90
38118;DHT22;23928;47.562;7.508;2023-07-13T05:15:07;19.20;99.90
38118;DHT22;23928;47.562;7.508;2023-07-13T05:17:33;19.20;99.90
38118;DHT22;23928;47.562;7.508;2023-07-13T05:19:59;19.30;99.90
38118;DHT22;23928;47.562;7.508;2023-07-13T05:22:24;19.30;99.90
38118;DHT22;23928;47.562;7.508;2023-07-13T05:24:50;19.40;99.90
38118;DHT22;23928;47.562;7.508;2023-07-13T05:27:16;19.50;99.90
38118;DHT22;23928;47.562;7.508;2023-07-13T05:29:41;19.30;99.90
38118;DHT22;23928;47.562;7.508;2023-07-13T05:32:07;19.60;99.90
38118;DHT22;23928;47.562;7.508;2023-07-13T05:34:32;19.50;99.90
38118;DHT22;23928;47.562;7.508;2023-07-13T05:36:58;19.60;99.90
38118;DHT22;23928;47.562;7.508;2023-07-13T05:39:24;19.70;99.90
38118;DHT22;23928;47.562;7.508;2023-07-13T05:41:50;19.70;99.90
38118;DHT22;23928;47.562;7.508;2023-07-13T05:44:15;19.60;99.90
38118;DHT22;23928;47.562;7.508;2023-07-13T05:46:41;19.70;99.90
38118;DHT22;23928;47.562;7.508;2023-07-13T05:49:06;19.80;99.90
38118;DHT22;23928;47.562;7.508;2023-07-13T05:51:32;19.90;99.90
38118;DHT22;23928;47.562;7.508;2023-07-13T05:53:57;20.00;99.90
38118;DHT22;23928;47.562;7.508;2023-07-13T05:56:23;19.70;99.90
38118;DHT22;23928;47.562;7.508;2023-07-13T05:58:49;19.80;99.90
38118;DHT22;23928;47.562;7.508;2023-07-13T06:01:15;20.00;99.90
38118;DHT22;23928;47.562;7.508;2023-07-13T06:03:41;20.00;99.90
38118;DHT22;23928;47.562;7.508;2023-07-13T06:06:08;20.20;99.90
38118;DHT22;23928;47.562;7.508;2023-07-13T06:08:34;20.40;99.90
38118;DHT22;23928;47.562;7.508;2023-07-13T06:11:09;20.50;99.90
38118;DHT22;23928;47.562;7.508;2023-07-13T06:13:37;20.50;99.90
38118;DHT22;23928;47.562;7.508;2023-07-13T06:16:03;20.60;99.90
38118;DHT22;23928;47.562;7.508;2023-07-13T06:18:30;20.50;99.90
38118;DHT22;23928;47.562;7.508;2023-07-13T06:20:56;20.60;99.90
38118;DHT22;23928;47.562;7.508;2023-07-13T06:23:23;20.70;99.90
38118;DHT22;23928;47.562;7.508;2023-07-13T06:25:48;20.60;99.90
38118;DHT22;23928;47.562;7.508;2023-07-13T06:28:14;20.30;99.90
38118;DHT22;23928;47.562;7.508;2023-07-13T06:30:40;20.20;99.90
38118;DHT22;23928;47.562;7.508;2023-07-13T06:33:05;20.30;99.90
38118;DHT22;23928;47.562;7.508;2023-07-13T06:35:31;20.30;99.90
38118;DHT22;23928;47.562;7.508;2023-07-13T06:37:57;20.20;99.90
38118;DHT22;23928;47.562;7.508;2023-07-13T06:40:22;20.20;99.90
38118;DHT22;23928;47.562;7.508;2023-07-13T06:42:48;20.30;99.90
38118;DHT22;23928;47.562;7.508;2023-07-13T06:45:14;20.50;99.90
38118;DHT22;23928;47.562;7.508;2023-07-13T06:47:39;20.50;99.90
38118;DHT22;23928;47.562;7.508;2023-07-13T06:50:05;20.70;99.90
38118;DHT22;23928;47.562;7.508;2023-07-13T06:52:31;20.70;99.90
38118;DHT22;23928;47.562;7.508;2023-07-13T06:54:57;20.70;99.90
38118;DHT22;23928;47.562;7.508;2023-07-13T06:57:22;20.60;99.90
38118;DHT22;23928;47.562;7.508;2023-07-13T06:59:48;21.00;99.90
38118;DHT22;23928;47.562;7.508;2023-07-13T07:02:13;21.10;99.90
38118;DHT22;23928;47.562;7.508;2023-07-13T07:04:39;21.30;99.90
38118;DHT22;23928;47.562;7.508;2023-07-13T07:07:05;21.00;99.90
38118;DHT22;23928;47.562;7.508;2023-07-13T07:09:30;21.00;99.90
38118;DHT22;23928;47.562;7.508;2023-07-13T07:11:57;20.80;99.90
38118;DHT22;23928;47.562;7.508;2023-07-13T07:14:22;20.80;99.90
38118;DHT22;23928;47.562;7.508;2023-07-13T07:16:49;20.80;99.90
38118;DHT22;23928;47.562;7.508;2023-07-13T07:19:14;20.50;99.90
38118;DHT22;23928;47.562;7.508;2023-07-13T07:21:40;20.80;99.90
38118;DHT22;23928;47.562;7.508;2023-07-13T07:24:05;20.90;99.90
38118;DHT22;23928;47.562;7.508;2023-07-13T07:26:31;21.30;99.90
38118;DHT22;23928;47.562;7.508;2023-07-13T07:28:57;21.00;99.90
38118;DHT22;23928;47.562;7.508;2023-07-13T07:31:22;20.90;99.90
38118;DHT22;23928;47.562;7.508;2023-07-13T07:33:48;21.00;99.90
38118;DHT22;23928;47.562;7.508;2023-07-13T07:36:15;21.20;99.90
38118;DHT22;23928;47.562;7.508;2023-07-13T07:38:41;21.50;99.90
38118;DHT22;23928;47.562;7.508;2023-07-13T07:41:07;21.70;99.90
38118;DHT22;23928;47.562;7.508;2023-07-13T07:43:33;22.00;99.90
38118;DHT22;23928;47.562;7.508;2023-07-13T07:45:58;21.60;99.90
38118;DHT22;23928;47.562;7.508;2023-07-13T07:48:24;21.60;99.90
38118;DHT22;23928;47.562;7.508;2023-07-13T07:50:50;21.70;99.90
38118;DHT22;23928;47.562;7.508;2023-07-13T07:53:15;21.70;99.90
38118;DHT22;23928;47.562;7.508;2023-07-13T07:55:41;21.70;99.90
38118;DHT22;23928;47.562;7.508;2023-07-13T07:58:07;22.10;99.90
38118;DHT22;23928;47.562;7.508;2023-07-13T08:00:33;22.50;99.90
38118;DHT22;23928;47.562;7.508;2023-07-13T08:02:59;22.10;99.90
38118;DHT22;23928;47.562;7.508;2023-07-13T08:05:25;22.20;99.90
38118;DHT22;23928;47.562;7.508;2023-07-13T08:07:51;22.20;99.90
38118;DHT22;23928;47.562;7.508;2023-07-13T08:10:16;22.40;99.90
38118;DHT22;23928;47.562;7.508;2023-07-13T08:12:42;22.30;99.90
38118;DHT22;23928;47.562;7.508;2023-07-13T08:15:12;22.40;99.90
38118;DHT22;23928;47.562;7.508;2023-07-13T08:17:38;22.60;99.90
38118;DHT22;23928;47.562;7.508;2023-07-13T08:20:03;23.00;99.90
38118;DHT22;23928;47.562;7.508;2023-07-13T08:22:29;23.00;99.90
38118;DHT22;23928;47.562;7.508;2023-07-13T08:24:55;22.60;99.90
38118;DHT22;23928;47.562;7.508;2023-07-13T08:27:24;22.60;99.90
38118;DHT22;23928;47.562;7.508;2023-07-13T08:29:51;22.70;99.90
38118;DHT22;23928;47.562;7.508;2023-07-13T08:32:18;22.60;99.90
38118;DHT22;23928;47.562;7.508;2023-07-13T08:34:44;22.20;99.90
38118;DHT22;23928;47.562;7.508;2023-07-13T08:37:10;21.70;99.90
38118;DHT22;23928;47.562;7.508;2023-07-13T08:39:36;21.20;99.90
38118;DHT22;23928;47.562;7.508;2023-07-13T08:47:39;21.40;99.90
38118;DHT22;23928;47.562;7.508;2023-07-13T08:50:12;21.60;99.90
38118;DHT22;23928;47.562;7.508;2023-07-13T08:52:41;21.80;99.90
38118;DHT22;23928;47.562;7.508;2023-07-13T08:55:33;21.80;99.90
38118;DHT22;23928;47.562;7.508;2023-07-13T08:58:12;21.80;99.90
38118;DHT22;23928;47.562;7.508;2023-07-13T09:01:01;22.20;99.90
38118;DHT22;23928;47.562;7.508;2023-07-13T09:03:31;22.20;99.90
38118;DHT22;23928;47.562;7.508;2023-07-13T09:06:00;22.50;99.90
38118;DHT22;23928;47.562;7.508;2023-07-13T09:08:47;22.90;99.90
38118;DHT22;23928;47.562;7.508;2023-07-13T09:11:34;22.50;99.90
38118;DHT22;23928;47.562;7.508;2023-07-13T09:16:30;22.90;99.90
38118;DHT22;23928;47.562;7.508;2023-07-13T09:19:01;23.00;99.90
38118;DHT22;23928;47.562;7.508;2023-07-13T09:21:37;22.80;99.90
38118;DHT22;23928;47.562;7.508;2023-07-13T09:27:29;22.50;99.90
38118;DHT22;23928;47.562;7.508;2023-07-13T09:30:10;22.40;99.90
38118;DHT22;23928;47.562;7.508;2023-07-13T09:32:48;22.40;99.90
38118;DHT22;23928;47.562;7.508;2023-07-13T09:35:19;22.50;99.90
38118;DHT22;23928;47.562;7.508;2023-07-13T09:37:46;22.90;99.90
38118;DHT22;23928;47.562;7.508;2023-07-13T09:40:24;22.80;99.90
38118;DHT22;23928;47.562;7.508;2023-07-13T09:42:54;23.00;99.90
38118;DHT22;23928;47.562;7.508;2023-07-13T09:45:33;23.10;99.90
38118;DHT22;23928;47.562;7.508;2023-07-13T09:48:04;23.40;99.90
38118;DHT22;23928;47.562;7.508;2023-07-13T09:50:30;23.80;99.90
38118;DHT22;23928;47.562;7.508;2023-07-13T09:52:56;23.80;99.90
38118;DHT22;23928;47.562;7.508;2023-07-13T09:55:31;23.60;99.90
38118;DHT22;23928;47.562;7.508;2023-07-13T09:58:04;23.30;99.90
38118;DHT22;23928;47.562;7.508;2023-07-13T10:00:30;23.10;99.90
38118;DHT22;23928;47.562;7.508;2023-07-13T10:03:20;23.00;99.90
38118;DHT22;23928;47.562;7.508;2023-07-13T10:05:48;23.10;99.90
38118;DHT22;23928;47.562;7.508;2023-07-13T10:08:27;23.50;99.90
38118;DHT22;23928;47.562;7.508;2023-07-13T10:11:00;23.50;99.90
38118;DHT22;23928;47.562;7.508;2023-07-13T10:13:29;24.10;99.90
38118;DHT22;23928;47.562;7.508;2023-07-13T10:15:57;24.40;99.90
38118;DHT22;23928;47.562;7.508;2023-07-13T10:18:24;24.00;99.90
38118;DHT22;23928;47.562;7.508;2023-07-13T10:21:28;24.20;99.90
38118;DHT22;23928;47.562;7.508;2023-07-13T10:24:21;24.40;99.90
38118;DHT22;23928;47.562;7.508;2023-07-13T10:27:20;24.00;99.90
38118;DHT22;23928;47.562;7.508;2023-07-13T10:30:11;24.00;99.90
38118;DHT22;23928;47.562;7.508;2023-07-13T10:32:38;24.50;99.90
38118;DHT22;23928;47.562;7.508;2023-07-13T10:35:04;23.70;99.90
38118;DHT22;23928;47.562;7.508;2023-07-13T10:37:43;23.90;99.90
38118;DHT22;23928;47.562;7.508;2023-07-13T10:40:21;24.00;99.90
38118;DHT22;23928;47.562;7.508;2023-07-13T10:42:50;24.60;99.90
38118;DHT22;23928;47.562;7.508;2023-07-13T10:45:22;24.70;99.90
38118;DHT22;23928;47.562;7.508;2023-07-13T10:47:50;24.70;99.90
38118;DHT22;23928;47.562;7.508;2023-07-13T10:50:23;25.10;99.90
38118;DHT22;23928;47.562;7.508;2023-07-13T10:53:03;24.70;99.90
38118;DHT22;23928;47.562;7.508;2023-07-13T10:55:40;24.50;99.90
38118;DHT22;23928;47.562;7.508;2023-07-13T10:58:23;24.50;99.90
38118;DHT22;23928;47.562;7.508;2023-07-13T11:03:33;24.60;99.90
38118;DHT22;23928;47.562;7.508;2023-07-13T11:06:13;24.70;99.90
38118;DHT22;23928;47.562;7.508;2023-07-13T11:21:18;24.80;99.90
38118;DHT22;23928;47.562;7.508;2023-07-13T11:23:52;24.40;99.90
38118;DHT22;23928;47.562;7.508;2023-07-13T11:31:58;24.60;99.90
38118;DHT22;23928;47.562;7.508;2023-07-13T11:34:36;24.90;99.90
38118;DHT22;23928;47.562;7.508;2023-07-13T11:37:03;25.00;99.90
38118;DHT22;23928;47.562;7.508;2023-07-13T11:39:35;24.70;99.90
38118;DHT22;23928;47.562;7.508;2023-07-13T11:42:13;24.60;99.90
38118;DHT22;23928;47.562;7.508;2023-07-13T11:44:46;24.60;99.90
38118;DHT22;23928;47.562;7.508;2023-07-13T11:47:21;24.50;99.90
38118;DHT22;23928;47.562;7.508;2023-07-13T11:49:55;24.80;99.90
38118;DHT22;23928;47.562;7.508;2023-07-13T11:52:32;24.50;99.90
38118;DHT22;23928;47.562;7.508;2023-07-13T11:55:00;24.60;99.90
38118;DHT22;23928;47.562;7.508;2023-07-13T11:57:37;25.00;99.90
38118;DHT22;23928;47.562;7.508;2023-07-13T12:00:16;24.90;99.90
38118;DHT22;23928;47.562;7.508;2023-07-13T12:02:45;24.70;99.90
38118;DHT22;23928;47.562;7.508;2023-07-13T12:05:15;24.80;99.90
38118;DHT22;23928;47.562;7.508;2023-07-13T12:07:43;25.00;99.90
38118;DHT22;23928;47.562;7.508;2023-07-13T12:10:28;24.80;99.90
38118;DHT22;23928;47.562;7.508;2023-07-13T12:12:59;25.20;99.90
38118;DHT22;23928;47.562;7.508;2023-07-13T12:15:43;25.40;99.90
38118;DHT22;23928;47.562;7.508;2023-07-13T12:18:21;25.30;99.90
38118;DHT22;23928;47.562;7.508;2023-07-13T12:20:48;25.20;99.90
38118;DHT22;23928;47.562;7.508;2023-07-13T12:25:45;25.10;99.90
38118;DHT22;23928;47.562;7.508;2023-07-13T12:30:59;25.50;99.90
38118;DHT22;23928;47.562;7.508;2023-07-13T12:33:28;25.40;99.90
38118;DHT22;23928;47.562;7.508;2023-07-13T12:35:54;25.30;99.90
38118;DHT22;23928;47.562;7.508;2023-07-13T12:38:21;25.90;99.90
38118;DHT22;23928;47.562;7.508;2023-07-13T12:40:50;25.60;99.90
38118;DHT22;23928;47.562;7.508;2023-07-13T12:43:16;25.70;99.90
38118;DHT22;23928;47.562;7.508;2023-07-13T12:46:02;25.50;99.90
38118;DHT22;23928;47.562;7.508;2023-07-13T12:48:28;25.90;99.90
38118;DHT22;23928;47.562;7.508;2023-07-13T12:50:55;25.10;99.90
38118;DHT22;23928;47.562;7.508;2023-07-13T12:53:29;25.20;99.90
38118;DHT22;23928;47.562;7.508;2023-07-13T12:56:02;25.80;99.90
38118;DHT22;23928;47.562;7.508;2023-07-13T13:00:59;26.00;99.90
38118;DHT22;23928;47.562;7.508;2023-07-13T13:03:35;26.00;99.90
38118;DHT22;23928;47.562;7.508;2023-07-13T13:06:06;25.90;99.90
38118;DHT22;23928;47.562;7.508;2023-07-13T13:08:34;25.90;99.90
38118;DHT22;23928;47.562;7.508;2023-07-13T13:11:01;25.70;99.90
38118;DHT22;23928;47.562;7.508;2023-07-13T13:13:27;26.10;99.90
38118;DHT22;23928;47.562;7.508;2023-07-13T13:15:53;26.20;99.90
38118;DHT22;23928;47.562;7.508;2023-07-13T13:18:21;25.80;99.90
38118;DHT22;23928;47.562;7.508;2023-07-13T13:20:50;25.50;99.90
38118;DHT22;23928;47.562;7.508;2023-07-13T13:23:19;25.40;99.90
38118;DHT22;23928;47.562;7.508;2023-07-13T13:25:49;25.40;99.90
38118;DHT22;23928;47.562;7.508;2023-07-13T13:28:19;25.60;99.90
38118;DHT22;23928;47.562;7.508;2023-07-13T13:30:46;25.90;99.90
38118;DHT22;23928;47.562;7.508;2023-07-13T13:33:15;25.50;99.90
38118;DHT22;23928;47.562;7.508;2023-07-13T13:35:42;25.60;99.90
38118;DHT22;23928;47.562;7.508;2023-07-13T13:38:15;25.90;99.90
38118;DHT22;23928;47.562;7.508;2023-07-13T13:40:42;25.70;99.90
38118;DHT22;23928;47.562;7.508;2023-07-13T13:43:18;26.10;99.90
38118;DHT22;23928;47.562;7.508;2023-07-13T13:45:45;26.20;99.90
38118;DHT22;23928;47.562;7.508;2023-07-13T13:48:17;26.00;99.90
38118;DHT22;23928;47.562;7.508;2023-07-13T13:50:43;26.10;99.90
38118;DHT22;23928;47.562;7.508;2023-07-13T13:53:11;26.20;99.90
38118;DHT22;23928;47.562;7.508;2023-07-13T13:55:38;26.20;99.90
38118;DHT22;23928;47.562;7.508;2023-07-13T13:58:04;26.20;99.90
38118;DHT22;23928;47.562;7.508;2023-07-13T14:00:30;26.00;99.90
38118;DHT22;23928;47.562;7.508;2023-07-13T14:02:55;26.20;99.90
38118;DHT22;23928;47.562;7.508;2023-07-13T14:05:24;26.70;99.90
38118;DHT22;23928;47.562;7.508;2023-07-13T14:07:54;26.20;99.90
38118;DHT22;23928;47.562;7.508;2023-07-13T14:10:20;27.40;99.90
38118;DHT22;23928;47.562;7.508;2023-07-13T14:12:48;27.70;99.90
38118;DHT22;23928;47.562;7.508;2023-07-13T14:15:22;28.10;99.90
38118;DHT22;23928;47.562;7.508;2023-07-13T14:17:49;27.40;99.90
38118;DHT22;23928;47.562;7.508;2023-07-13T14:20:15;27.30;99.90
38118;DHT22;23928;47.562;7.508;2023-07-13T14:22:41;27.40;99.90
38118;DHT22;23928;47.562;7.508;2023-07-13T14:25:14;26.80;99.90
38118;DHT22;23928;47.562;7.508;2023-07-13T14:27:41;26.50;99.90
38118;DHT22;23928;47.562;7.508;2023-07-13T14:30:19;26.20;99.90
38118;DHT22;23928;47.562;7.508;2023-07-13T14:32:45;26.60;99.90
38118;DHT22;23928;47.562;7.508;2023-07-13T14:35:15;26.90;99.90
38118;DHT22;23928;47.562;7.508;2023-07-13T14:37:42;26.80;99.90
38118;DHT22;23928;47.562;7.508;2023-07-13T14:40:16;27.00;99.90
38118;DHT22;23928;47.562;7.508;2023-07-13T14:42:42;26.60;99.90
38118;DHT22;23928;47.562;7.508;2023-07-13T14:45:19;26.50;99.90
38118;DHT22;23928;47.562;7.508;2023-07-13T14:47:46;25.90;99.90
38118;DHT22;23928;47.562;7.508;2023-07-13T14:50:17;26.10;99.90
38118;DHT22;23928;47.562;7.508;2023-07-13T14:52:44;26.20;99.90
38118;DHT22;23928;47.562;7.508;2023-07-13T14:55:15;26.50;99.90
38118;DHT22;23928;47.562;7.508;2023-07-13T14:57:41;27.10;99.90
38118;DHT22;23928;47.562;7.508;2023-07-13T15:00:24;27.70;99.90
38118;DHT22;23928;47.562;7.508;2023-07-13T15:02:53;27.40;99.90
38118;DHT22;23928;47.562;7.508;2023-07-13T15:05:22;27.30;99.90
38118;DHT22;23928;47.562;7.508;2023-07-13T15:07:50;27.00;99.90
38118;DHT22;23928;47.562;7.508;2023-07-13T15:10:18;26.60;99.90
38118;DHT22;23928;47.562;7.508;2023-07-13T15:12:44;26.80;99.90
38118;DHT22;23928;47.562;7.508;2023-07-13T15:15:10;27.30;99.90
38118;DHT22;23928;47.562;7.508;2023-07-13T15:17:41;27.50;99.90
38118;DHT22;23928;47.562;7.508;2023-07-13T15:22:42;27.00;99.90
38118;DHT22;23928;47.562;7.508;2023-07-13T15:25:34;27.20;99.90
38118;DHT22;23928;47.562;7.508;2023-07-13T15:28:00;27.70;99.90
38118;DHT22;23928;47.562;7.508;2023-07-13T15:30:29;26.90;99.90
38118;DHT22;23928;47.562;7.508;2023-07-13T15:32:57;27.30;99.90
38118;DHT22;23928;47.562;7.508;2023-07-13T15:35:26;27.60;99.90
38118;DHT22;23928;47.562;7.508;2023-07-13T15:37:53;27.50;99.90
38118;DHT22;23928;47.562;7.508;2023-07-13T15:40:19;27.90;99.90
38118;DHT22;23928;47.562;7.508;2023-07-13T15:42:47;27.50;99.90
38118;DHT22;23928;47.562;7.508;2023-07-13T15:45:18;28.10;99.90
38118;DHT22;23928;47.562;7.508;2023-07-13T15:47:45;27.90;99.90
38118;DHT22;23928;47.562;7.508;2023-07-13T15:50:17;27.60;99.90
38118;DHT22;23928;47.562;7.508;2023-07-13T15:52:45;27.60;99.90
38118;DHT22;23928;47.562;7.508;2023-07-13T15:55:13;28.60;99.90
38118;DHT22;23928;47.562;7.508;2023-07-13T15:57:47;28.50;99.90
38118;DHT22;23928;47.562;7.508;2023-07-13T16:00:22;27.90;99.90
38118;DHT22;23928;47.562;7.508;2023-07-13T16:02:49;28.10;99.90
38118;DHT22;23928;47.562;7.508;2023-07-13T16:05:15;27.60;99.90
38118;DHT22;23928;47.562;7.508;2023-07-13T16:07:45;26.80;99.90
38118;DHT22;23928;47.562;7.508;2023-07-13T16:10:16;27.40;99.90
38118;DHT22;23928;47.562;7.508;2023-07-13T16:12:42;27.30;99.90
38118;DHT22;23928;47.562;7.508;2023-07-13T16:15:14;28.20;99.90
38118;DHT22;23928;47.562;7.508;2023-07-13T16:17:40;28.30;99.90
38118;DHT22;23928;47.562;7.508;2023-07-13T16:20:07;27.50;99.90
38118;DHT22;23928;47.562;7.508;2023-07-13T16:22:37;27.60;99.90
38118;DHT22;23928;47.562;7.508;2023-07-13T16:25:09;28.50;99.90